createdAt,value
2019-04-25T00:02:07.561Z,100368.06
2019-04-25T00:04:37.108Z,100369.13
2019-04-25T00:07:06.248Z,100373.55
2019-04-25T00:09:43.967Z,100366.77
2019-04-25T00:12:13.656Z,100361.52
2019-04-25T00:14:42.724Z,100371.70
2019-04-25T00:17:11.822Z,100369.52
2019-04-25T00:19:42.493Z,100377.68
2019-04-25T00:22:17.196Z,100358.67
2019-04-25T00:24:58.404Z,100371.95
2019-04-25T00:27:27.817Z,100368.05
2019-04-25T00:29:57.617Z,100373.97
2019-04-25T00:32:26.717Z,100371.09
2019-04-25T00:34:55.753Z,100373.63
2019-04-25T00:37:24.841Z,100373.15
2019-04-25T00:39:53.892Z,100378.58
2019-04-25T00:42:23.249Z,100376.56
2019-04-25T00:44:52.525Z,100380.13
2019-04-25T00:47:21.714Z,100391.52
2019-04-25T00:49:52.151Z,100402.20
2019-04-25T00:52:22.805Z,100414.42
2019-04-25T00:54:52.622Z,100419.48
2019-04-25T00:57:22.507Z,100434.45
2019-04-25T01:00:01.868Z,100429.72
2019-04-25T01:02:37.797Z,100439.53
2019-04-25T01:05:07.643Z,100458.22
2019-04-25T01:07:36.725Z,100476.19
2019-04-25T01:10:06.599Z,100482.78
2019-04-25T01:12:35.633Z,100483.16
2019-04-25T01:15:06.670Z,100473.68
2019-04-25T01:17:35.709Z,100478.67
2019-04-25T01:20:05.258Z,100485.43
2019-04-25T01:22:34.407Z,100491.20
2019-04-25T01:25:03.890Z,100485.23
2019-04-25T01:27:33.304Z,100482.66
2019-04-25T01:30:04.303Z,100477.05
2019-04-25T01:32:38.302Z,100477.35
2019-04-25T01:35:29.389Z,100476.31
2019-04-25T01:38:29.209Z,100477.30
2019-04-25T01:41:17.564Z,100480.86
2019-04-25T01:43:59.724Z,100486.48
2019-04-25T01:46:30.298Z,100494.66
2019-04-25T01:48:59.794Z,100495.20
2019-04-25T01:51:30.049Z,100502.53
2019-04-25T01:53:59.824Z,100502.53
2019-04-25T01:56:29.847Z,100501.37
2019-04-25T01:59:00.023Z,100496.48
2019-04-25T02:01:30.925Z,100492.23
2019-04-25T02:03:59.987Z,100483.41
2019-04-25T02:06:29.963Z,100478.31
2019-04-25T02:08:59.945Z,100469.31
2019-04-25T02:11:36.986Z,100463.55
2019-04-25T02:14:06.910Z,100463.91
2019-04-25T02:16:36.286Z,100442.52
2019-04-25T02:19:05.440Z,100437.25
2019-04-25T02:21:34.593Z,100433.52
2019-04-25T02:24:04.363Z,100428.73
2019-04-25T02:26:34.687Z,100425.36
2019-04-25T02:29:04.702Z,100423.16
2019-04-25T02:31:34.726Z,100424.18
2019-04-25T02:34:08.229Z,100417.72
2019-04-25T02:36:34.932Z,100416.48
2019-04-25T02:39:08.948Z,100418.35
2019-04-25T02:41:38.283Z,100415.81
2019-04-25T02:44:09.964Z,100432.58
2019-04-25T02:46:51.296Z,100435.30
2019-04-25T02:49:44.587Z,100437.00
2019-04-25T02:52:29.774Z,100450.27
2019-04-25T02:55:00.306Z,100447.20
2019-04-25T02:57:30.307Z,100449.43
2019-04-25T03:00:00.357Z,100460.80
2019-04-25T03:02:30.374Z,100470.67
2019-04-25T03:05:01.347Z,100470.02
2019-04-25T03:07:30.481Z,100482.26
2019-04-25T03:10:01.922Z,100474.28
2019-04-25T03:12:33.442Z,100479.03
2019-04-25T03:15:02.940Z,100493.47
2019-04-25T03:17:34.233Z,100485.36
2019-04-25T03:20:14.908Z,100478.59
2019-04-25T03:22:44.491Z,100480.95
2019-04-25T03:25:17.306Z,100481.97
2019-04-25T03:27:44.634Z,100519.39
2019-04-25T03:30:17.675Z,100544.58
2019-04-25T03:32:45.289Z,100552.21
2019-04-25T03:35:14.599Z,100562.21
2019-04-25T03:37:43.995Z,100563.73
2019-04-25T03:40:13.990Z,100564.42
2019-04-25T03:42:43.908Z,100560.48
2019-04-25T03:45:14.001Z,100570.34
2019-04-25T03:47:44.180Z,100573.91
2019-04-25T03:50:13.987Z,100584.65
2019-04-25T03:52:43.559Z,100587.69
2019-04-25T03:55:14.434Z,100593.83
2019-04-25T03:57:44.351Z,100595.19
2019-04-25T04:00:14.673Z,100607.09
2019-04-25T04:02:44.440Z,100611.88
2019-04-25T04:05:14.815Z,100610.00
2019-04-25T04:07:44.363Z,100628.20
2019-04-25T04:10:14.490Z,100629.08
2019-04-25T04:12:44.397Z,100633.47
2019-04-25T04:15:14.889Z,100635.55
2019-04-25T04:17:53.677Z,100648.66
2019-04-25T04:20:40.787Z,100643.03
2019-04-25T04:23:18.138Z,100641.69
2019-04-25T04:25:47.269Z,100642.52
2019-04-25T04:28:16.338Z,100655.80
2019-04-25T04:30:45.514Z,100661.23
2019-04-25T04:33:27.696Z,100660.89
2019-04-25T04:35:45.622Z,100658.34
2019-04-25T04:38:15.517Z,100664.97
2019-04-25T04:40:45.379Z,100674.66
2019-04-25T04:43:15.332Z,100674.83
2019-04-25T04:45:45.753Z,100674.48
2019-04-25T04:48:15.527Z,100679.60
2019-04-25T04:50:44.679Z,100690.96
2019-04-25T04:53:15.719Z,100694.55
2019-04-25T04:55:44.818Z,100690.12
2019-04-25T04:58:14.993Z,100690.30
2019-04-25T05:00:44.760Z,100695.22
2019-04-25T05:03:36.395Z,100713.41
2019-04-25T05:06:17.313Z,100709.50
2019-04-25T05:08:49.470Z,100707.97
2019-04-25T05:11:18.494Z,100717.14
2019-04-25T05:13:47.548Z,100720.36
2019-04-25T05:16:16.599Z,100723.25
2019-04-25T05:18:45.567Z,100712.55
2019-04-25T05:21:15.779Z,100726.46
2019-04-25T05:23:45.413Z,100728.66
2019-04-25T05:26:15.963Z,100736.30
2019-04-25T05:28:45.713Z,100737.83
2019-04-25T05:31:20.209Z,100734.05
2019-04-25T05:33:49.258Z,100732.80
2019-04-25T05:36:18.517Z,100730.75
2019-04-25T05:38:48.035Z,100737.88
2019-04-25T05:41:39.130Z,100737.13
2019-04-25T05:44:08.217Z,100730.58
2019-04-25T05:46:37.243Z,100727.09
2019-04-25T05:49:06.313Z,100732.79
2019-04-25T05:51:35.330Z,100736.73
2019-04-25T05:54:04.357Z,100742.70
2019-04-25T05:56:33.882Z,100754.20
2019-04-25T05:59:03.327Z,100765.70
2019-04-25T06:01:34.333Z,100770.69
2019-04-25T06:04:05.367Z,100776.63
2019-04-25T06:06:36.815Z,100776.09
2019-04-25T06:09:19.308Z,100777.97
2019-04-25T06:11:56.365Z,100783.39
2019-04-25T06:14:26.276Z,100791.55
2019-04-25T06:16:58.291Z,100797.77
2019-04-25T06:19:49.204Z,100792.10
2019-04-25T06:22:24.664Z,100790.86
2019-04-25T06:25:02.321Z,100795.44
2019-04-25T06:27:35.348Z,100803.16
2019-04-25T06:30:17.174Z,100805.15
2019-04-25T06:32:46.225Z,100810.22
2019-04-25T06:35:15.340Z,100809.69
2019-04-25T06:37:44.489Z,100804.81
2019-04-25T06:40:15.255Z,100805.59
2019-04-25T06:42:46.701Z,100819.17
2019-04-25T06:45:38.661Z,100832.38
2019-04-25T06:48:14.613Z,100838.30
2019-04-25T06:50:43.821Z,100844.26
2019-04-25T06:53:13.600Z,100853.92
2019-04-25T06:55:43.408Z,100866.33
2019-04-25T06:58:14.523Z,100866.78
2019-04-25T07:00:57.491Z,100861.92
2019-04-25T07:03:15.677Z,100869.70
2019-04-25T07:05:44.784Z,100864.05
2019-04-25T07:08:13.793Z,100861.75
2019-04-25T07:10:44.634Z,100856.61
2019-04-25T07:13:14.288Z,100858.37
2019-04-25T07:15:43.739Z,100853.50
2019-04-25T07:18:13.960Z,100864.92
2019-04-25T07:20:45.219Z,100866.96
2019-04-25T07:23:14.124Z,100871.78
2019-04-25T07:25:48.342Z,100863.20
2019-04-25T07:28:40.196Z,100867.50
2019-04-25T07:31:26.859Z,100861.66
2019-04-25T07:34:03.270Z,100867.53
2019-04-25T07:36:33.409Z,100873.80
2019-04-25T07:39:09.636Z,100864.83
2019-04-25T07:41:37.134Z,100869.70
2019-04-25T07:44:05.728Z,100873.73
2019-04-25T07:46:39.286Z,100878.49
2019-04-25T07:49:05.621Z,100874.00
2019-04-25T07:51:35.515Z,100871.16
2019-04-25T07:54:05.261Z,100867.95
2019-04-25T07:56:35.549Z,100878.69
2019-04-25T07:59:07.918Z,100879.84
2019-04-25T08:01:38.726Z,100886.84
2019-04-25T08:04:08.003Z,100880.77
2019-04-25T08:06:37.651Z,100889.48
2019-04-25T08:09:09.368Z,100887.19
2019-04-25T08:11:38.412Z,100894.28
2019-04-25T08:14:14.307Z,100900.86
2019-04-25T08:16:46.979Z,100894.33
2019-04-25T08:19:16.086Z,100900.50
2019-04-25T08:21:45.701Z,100899.20
2019-04-25T08:24:15.644Z,100893.16
2019-04-25T08:26:44.687Z,100893.12
2019-04-25T08:29:13.743Z,100894.95
2019-04-25T08:31:43.896Z,100911.33
2019-04-25T08:34:14.549Z,100911.30
2019-04-25T08:36:45.389Z,100911.98
2019-04-25T08:39:14.716Z,100914.41
2019-04-25T08:41:45.364Z,100910.83
2019-04-25T08:44:14.633Z,100909.69
2019-04-25T08:46:44.616Z,100909.27
2019-04-25T08:49:25.294Z,100913.56
2019-04-25T08:51:55.814Z,100916.90
2019-04-25T08:54:50.057Z,100910.97
2019-04-25T08:57:37.912Z,100921.96
2019-04-25T09:00:17.821Z,100906.94
2019-04-25T09:02:57.033Z,100906.84
2019-04-25T09:05:36.031Z,100903.59
2019-04-25T09:08:05.204Z,100903.35
2019-04-25T09:10:35.754Z,100910.08
2019-04-25T09:13:05.201Z,100904.86
2019-04-25T09:15:36.543Z,100900.53
2019-04-25T09:18:05.167Z,100896.38
2019-04-25T09:20:38.029Z,100894.15
2019-04-25T09:23:05.076Z,100887.78
2019-04-25T09:25:35.466Z,100883.30
2019-04-25T09:28:04.894Z,100881.96
2019-04-25T09:30:35.767Z,100888.03
2019-04-25T09:33:05.234Z,100894.33
2019-04-25T09:35:36.037Z,100904.16
2019-04-25T09:38:05.076Z,100904.01
2019-04-25T09:40:35.155Z,100904.02
2019-04-25T09:43:05.044Z,100905.70
2019-04-25T09:45:55.948Z,100903.70
2019-04-25T09:48:30.724Z,100899.32
2019-04-25T09:51:05.654Z,100894.81
2019-04-25T09:53:43.168Z,100903.17
2019-04-25T09:56:38.420Z,100906.73
2019-04-25T09:59:13.781Z,100903.70
2019-04-25T10:01:45.337Z,100887.45
2019-04-25T10:04:15.176Z,100871.72
2019-04-25T10:06:44.961Z,100879.92
2019-04-25T10:09:15.683Z,100880.34
2019-04-25T10:11:45.412Z,100886.28
2019-04-25T10:14:54.272Z,100885.38
2019-04-25T10:17:23.777Z,100895.68
2019-04-25T10:19:52.888Z,100881.49
2019-04-25T10:22:25.169Z,100869.34
2019-04-25T10:25:00.179Z,100875.16
2019-04-25T10:27:24.921Z,100873.94
2019-04-25T10:29:57.087Z,100869.16
2019-04-25T10:32:25.016Z,100869.91
2019-04-25T10:34:54.077Z,100866.08
2019-04-25T10:37:23.223Z,100870.13
2019-04-25T10:39:54.230Z,100870.06
2019-04-25T10:42:23.924Z,100881.33
2019-04-25T10:44:56.233Z,100886.05
2019-04-25T10:47:23.731Z,100880.23
2019-04-25T10:49:53.673Z,100893.50
2019-04-25T10:52:25.013Z,100896.38
2019-04-25T10:54:54.329Z,100900.52
2019-04-25T10:57:24.937Z,100894.66
2019-04-25T11:00:05.949Z,100889.82
2019-04-25T11:02:25.600Z,100894.47
2019-04-25T11:05:00.229Z,100882.52
2019-04-25T11:07:29.568Z,100878.93
2019-04-25T11:09:58.900Z,100884.73
2019-04-25T11:12:27.923Z,100889.13
2019-04-25T11:14:57.081Z,100884.13
2019-04-25T11:17:26.135Z,100889.16
2019-04-25T11:19:55.478Z,100883.56
2019-04-25T11:22:24.520Z,100884.02
2019-04-25T11:24:53.675Z,100882.94
2019-04-25T11:27:23.950Z,100887.65
2019-04-25T11:29:58.165Z,100892.61
2019-04-25T11:32:26.619Z,100898.37
2019-04-25T11:34:55.849Z,100883.56
2019-04-25T11:37:26.557Z,100882.22
2019-04-25T11:40:07.949Z,100887.58
2019-04-25T11:42:37.000Z,100888.31
2019-04-25T11:45:07.582Z,100884.01
2019-04-25T11:47:36.711Z,100891.87
2019-04-25T11:50:08.200Z,100881.35
2019-04-25T11:52:37.204Z,100880.69
2019-04-25T11:55:06.667Z,100890.84
2019-04-25T11:57:35.681Z,100886.19
2019-04-25T12:00:05.133Z,100892.87
2019-04-25T12:02:34.426Z,100884.05
2019-04-25T12:05:03.759Z,100902.69
2019-04-25T12:07:34.237Z,100897.99
2019-04-25T12:10:03.804Z,100905.39
2019-04-25T12:12:33.862Z,100908.55
2019-04-25T12:15:04.470Z,100902.30
2019-04-25T12:17:35.175Z,100913.17
2019-04-25T12:20:04.884Z,100904.39
2019-04-25T12:22:34.426Z,100909.89
2019-04-25T12:25:04.672Z,100916.11
2019-04-25T12:27:33.744Z,100908.64
2019-04-25T12:30:03.917Z,100911.01
2019-04-25T12:32:35.177Z,100914.45
2019-04-25T12:35:06.178Z,100908.62
2019-04-25T12:37:35.294Z,100913.06
2019-04-25T12:40:07.238Z,100906.81
2019-04-25T12:42:36.196Z,100906.27
2019-04-25T12:45:18.233Z,100897.41
2019-04-25T12:47:48.395Z,100895.63
2019-04-25T12:50:18.803Z,100885.30
2019-04-25T12:52:48.714Z,100892.55
2019-04-25T12:55:18.137Z,100897.98
2019-04-25T12:57:48.106Z,100894.53
2019-04-25T13:00:21.570Z,100897.83
2019-04-25T13:02:51.667Z,100900.28
2019-04-25T13:05:21.693Z,100902.80
2019-04-25T13:07:54.253Z,100900.75
2019-04-25T13:10:23.578Z,100907.47
2019-04-25T13:12:55.215Z,100908.22
2019-04-25T13:15:26.616Z,100908.22
2019-04-25T13:17:54.666Z,100903.95
2019-04-25T13:20:23.712Z,100899.38
2019-04-25T13:22:53.269Z,100895.22
2019-04-25T13:25:24.300Z,100899.26
2019-04-25T13:28:03.414Z,100889.59
2019-04-25T13:30:40.550Z,100892.52
2019-04-25T13:33:33.205Z,100892.84
2019-04-25T13:36:11.496Z,100901.44
2019-04-25T13:38:40.647Z,100895.25
2019-04-25T13:41:09.653Z,100888.59
2019-04-25T13:43:38.834Z,100880.14
2019-04-25T13:46:07.898Z,100887.52
2019-04-25T13:48:36.929Z,100885.72
2019-04-25T13:51:06.125Z,100877.08
2019-04-25T13:53:35.167Z,100871.47
2019-04-25T13:56:05.091Z,100873.38
2019-04-25T13:58:34.375Z,100865.25
2019-04-25T14:01:12.776Z,100866.14
2019-04-25T14:03:35.656Z,100856.52
2019-04-25T14:06:04.879Z,100847.69
2019-04-25T14:08:33.945Z,100853.81
2019-04-25T14:11:05.147Z,100848.08
2019-04-25T14:13:34.744Z,100848.19
2019-04-25T14:16:13.820Z,100854.17
2019-04-25T14:19:10.957Z,100854.67
2019-04-25T14:21:39.919Z,100847.53
2019-04-25T14:24:19.838Z,100837.88
2019-04-25T14:26:39.721Z,100836.38
2019-04-25T14:29:08.736Z,100841.69
2019-04-25T14:31:45.475Z,100836.42
2019-04-25T14:34:08.555Z,100847.25
2019-04-25T14:36:37.607Z,100848.89
2019-04-25T14:39:08.149Z,100842.45
2019-04-25T14:41:39.510Z,100840.32
2019-04-25T14:44:08.540Z,100843.20
2019-04-25T14:46:37.850Z,100842.19
2019-04-25T14:49:06.935Z,100836.19
2019-04-25T14:51:36.066Z,100842.88
2019-04-25T14:54:07.746Z,100839.91
2019-04-25T14:56:45.745Z,100841.58
2019-04-25T14:59:14.762Z,100849.34
2019-04-25T15:01:45.232Z,100846.84
2019-04-25T15:04:14.496Z,100850.84
2019-04-25T15:06:43.504Z,100843.91
2019-04-25T15:09:12.655Z,100840.56
2019-04-25T15:11:41.676Z,100847.47
2019-04-25T15:14:10.734Z,100842.79
2019-04-25T15:16:39.799Z,100845.08
2019-04-25T15:19:08.850Z,100848.86
2019-04-25T15:21:37.858Z,100853.67
2019-04-25T15:24:06.908Z,100845.58
2019-04-25T15:26:35.971Z,100855.60
2019-04-25T15:29:04.980Z,100856.11
2019-04-25T15:31:33.998Z,100843.86
2019-04-25T15:34:03.056Z,100856.34
2019-04-25T15:36:38.414Z,100857.56
2019-04-25T15:39:39.940Z,100862.30
2019-04-25T15:42:29.034Z,100856.96
2019-04-25T15:45:15.876Z,100865.09
2019-04-25T15:47:45.583Z,100868.78
2019-04-25T15:50:14.864Z,100863.86
2019-04-25T15:52:45.030Z,100858.17
2019-04-25T15:55:14.155Z,100858.25
2019-04-25T15:57:43.164Z,100858.95
2019-04-25T16:00:18.434Z,100859.05
2019-04-25T16:02:47.520Z,100852.65
2019-04-25T16:05:16.527Z,100857.27
2019-04-25T16:07:45.864Z,100858.86
2019-04-25T16:10:15.491Z,100847.05
2019-04-25T16:12:44.548Z,100851.38
2019-04-25T16:15:13.575Z,100849.94
2019-04-25T16:17:43.216Z,100860.58
2019-04-25T16:20:12.480Z,100846.39
2019-04-25T16:22:41.487Z,100843.31
2019-04-25T16:25:10.949Z,100845.67
2019-04-25T16:27:40.034Z,100852.03
2019-04-25T16:30:10.325Z,100849.03
2019-04-25T16:32:39.337Z,100851.37
2019-04-25T16:35:08.625Z,100854.56
2019-04-25T16:37:37.640Z,100852.99
2019-04-25T16:40:06.816Z,100845.91
2019-04-25T16:42:35.983Z,100848.66
2019-04-25T16:45:06.323Z,100845.89
2019-04-25T16:47:35.601Z,100842.45
2019-04-25T16:50:05.027Z,100840.02
2019-04-25T16:52:34.671Z,100840.37
2019-04-25T16:55:04.096Z,100835.84
2019-04-25T16:57:33.173Z,100833.64
2019-04-25T17:00:02.287Z,100834.23
2019-04-25T17:02:38.807Z,100834.67
2019-04-25T17:05:04.805Z,100842.05
2019-04-25T17:07:34.014Z,100842.67
2019-04-25T17:10:03.187Z,100836.56
2019-04-25T17:12:32.310Z,100829.46
2019-04-25T17:15:18.628Z,100835.89
2019-04-25T17:18:06.620Z,100834.16
2019-04-25T17:20:40.142Z,100830.72
2019-04-25T17:23:09.173Z,100832.17
2019-04-25T17:25:38.218Z,100831.10
2019-04-25T17:28:07.499Z,100828.94
2019-04-25T17:30:38.141Z,100835.48
2019-04-25T17:33:29.101Z,100830.27
2019-04-25T17:36:06.117Z,100838.62
2019-04-25T17:38:42.232Z,100837.61
2019-04-25T17:41:14.033Z,100839.64
2019-04-25T17:43:43.887Z,100841.92
2019-04-25T17:46:14.773Z,100846.23
2019-04-25T17:48:43.776Z,100848.41
2019-04-25T17:51:12.891Z,100851.44
2019-04-25T17:53:43.234Z,100847.12
2019-04-25T17:56:12.355Z,100854.13
2019-04-25T17:58:41.368Z,100844.20
2019-04-25T18:01:12.876Z,100844.95
2019-04-25T18:03:42.339Z,100856.28
2019-04-25T18:06:12.225Z,100855.53
2019-04-25T18:08:42.238Z,100860.92
2019-04-25T18:11:12.383Z,100856.66
2019-04-25T18:13:42.563Z,100853.78
2019-04-25T18:16:27.397Z,100867.59
2019-04-25T18:19:01.850Z,100865.04
2019-04-25T18:21:30.854Z,100861.84
2019-04-25T18:24:27.925Z,100872.04
2019-04-25T18:27:01.561Z,100875.61
2019-04-25T18:29:30.602Z,100874.48
2019-04-25T18:31:59.660Z,100882.20
2019-04-25T18:34:34.946Z,100873.61
2019-04-25T18:37:23.040Z,100881.73
2019-04-25T18:39:58.406Z,100883.12
2019-04-25T18:42:42.489Z,100884.45
2019-04-25T18:45:15.281Z,100890.48
2019-04-25T18:47:44.563Z,100893.11
2019-04-25T18:50:16.190Z,100901.08
2019-04-25T18:52:57.840Z,100901.97
2019-04-25T18:55:32.866Z,100903.10
2019-04-25T18:58:07.780Z,100898.07
2019-04-25T19:01:04.915Z,100892.55
2019-04-25T19:04:01.916Z,100900.20
2019-04-25T19:06:31.395Z,100907.80
2019-04-25T19:09:00.823Z,100906.06
2019-04-25T19:11:29.817Z,100903.83
2019-04-25T19:13:58.827Z,100894.77
2019-04-25T19:16:27.885Z,100894.03
2019-04-25T19:18:56.941Z,100898.16
2019-04-25T19:21:25.997Z,100894.85
2019-04-25T19:23:55.042Z,100893.36
2019-04-25T19:26:24.111Z,100897.21
2019-04-25T19:28:53.120Z,100894.02
2019-04-25T19:31:22.168Z,100897.80
2019-04-25T19:33:51.767Z,100896.80
2019-04-25T19:36:20.781Z,100900.84
2019-04-25T19:38:50.132Z,100905.48
2019-04-25T19:41:34.636Z,100903.26
2019-04-25T19:44:09.444Z,100902.20
2019-04-25T19:46:40.346Z,100903.56
2019-04-25T19:49:10.477Z,100905.92
2019-04-25T19:51:39.486Z,100901.15
2019-04-25T19:54:08.659Z,100903.17
2019-04-25T19:56:37.677Z,100901.49
2019-04-25T19:59:06.728Z,100895.66
2019-04-25T20:01:35.803Z,100895.63
2019-04-25T20:04:12.509Z,100894.39
2019-04-25T20:07:11.763Z,100898.64
2019-04-25T20:09:57.780Z,100891.31
2019-04-25T20:12:30.338Z,100896.78
2019-04-25T20:14:59.340Z,100893.52
2019-04-25T20:17:28.393Z,100893.33
2019-04-25T20:19:57.404Z,100904.78
2019-04-25T20:22:26.472Z,100893.33
2019-04-25T20:24:55.792Z,100899.32
2019-04-25T20:27:24.787Z,100898.48
2019-04-25T20:29:54.584Z,100898.48
2019-04-25T20:32:25.420Z,100902.23
2019-04-25T20:34:55.256Z,100893.36
2019-04-25T20:37:24.386Z,100893.89
2019-04-25T20:39:53.995Z,100890.48
2019-04-25T20:42:24.674Z,100890.66
2019-04-25T20:44:53.763Z,100891.75
2019-04-25T20:47:22.763Z,100885.61
2019-04-25T20:49:52.919Z,100885.45
2019-04-25T20:52:22.052Z,100884.08
2019-04-25T20:54:51.060Z,100881.23
2019-04-25T20:57:20.106Z,100875.27
2019-04-25T20:59:49.449Z,100873.59
2019-04-25T21:02:18.620Z,100872.95
2019-04-25T21:04:47.809Z,100877.72
2019-04-25T21:07:17.855Z,100873.16
2019-04-25T21:09:47.182Z,100877.52
2019-04-25T21:12:16.192Z,100871.77
2019-04-25T21:14:56.970Z,100867.89
2019-04-25T21:17:50.974Z,100868.09
2019-04-25T21:20:21.133Z,100868.30
2019-04-25T21:22:50.528Z,100866.42
2019-04-25T21:25:19.972Z,100872.09
2019-04-25T21:27:48.979Z,100881.16
2019-04-25T21:30:18.028Z,100879.47
2019-04-25T21:32:57.253Z,100883.91
2019-04-25T21:35:26.587Z,100885.80
2019-04-25T21:37:55.610Z,100875.39
2019-04-25T21:40:43.640Z,100873.39
2019-04-25T21:43:23.407Z,100879.52
2019-04-25T21:45:52.830Z,100877.87
2019-04-25T21:48:23.011Z,100877.87
2019-04-25T21:50:53.491Z,100876.88
2019-04-25T21:53:22.733Z,100874.52
2019-04-25T21:55:51.967Z,100871.81
2019-04-25T21:58:22.366Z,100871.16
2019-04-25T22:01:06.710Z,100860.09
2019-04-25T22:03:35.720Z,100863.70
2019-04-25T22:06:05.244Z,100859.98
2019-04-25T22:08:34.261Z,100862.05
2019-04-25T22:11:03.400Z,100860.69
2019-04-25T22:13:32.675Z,100867.51
2019-04-25T22:16:02.013Z,100858.98
2019-04-25T22:18:31.308Z,100860.53
2019-04-25T22:21:00.312Z,100862.23
2019-04-25T22:23:29.388Z,100859.52
2019-04-25T22:25:58.850Z,100862.42
2019-04-25T22:28:29.003Z,100853.38
2019-04-25T22:31:01.117Z,100853.91
2019-04-25T22:33:38.577Z,100851.55
2019-04-25T22:36:18.805Z,100851.37
2019-04-25T22:39:06.831Z,100856.81
2019-04-25T22:41:36.800Z,100855.97
2019-04-25T22:44:06.624Z,100850.19
2019-04-25T22:46:36.009Z,100850.19
2019-04-25T22:49:05.642Z,100848.82
2019-04-25T22:51:34.721Z,100845.95
2019-04-25T22:54:05.277Z,100845.97
2019-04-25T22:56:34.467Z,100833.54
2019-04-25T22:59:04.849Z,100834.20
2019-04-25T23:01:43.996Z,100828.80
2019-04-25T23:04:23.047Z,100826.70
2019-04-25T23:06:52.055Z,100817.22
2019-04-25T23:09:21.113Z,100816.52
2019-04-25T23:11:50.700Z,100819.59
2019-04-25T23:14:20.433Z,100817.91
2019-04-25T23:16:49.441Z,100812.12
2019-04-25T23:19:18.508Z,100806.02
2019-04-25T23:21:47.772Z,100810.76
2019-04-25T23:24:18.631Z,100814.35
2019-04-25T23:27:05.150Z,100809.92
2019-04-25T23:29:34.676Z,100810.79
2019-04-25T23:32:03.999Z,100803.30
2019-04-25T23:34:33.394Z,100795.83
2019-04-25T23:37:02.410Z,100799.55
2019-04-25T23:39:31.755Z,100796.00
2019-04-25T23:42:01.110Z,100794.30
2019-04-25T23:44:30.145Z,100788.33
2019-04-25T23:46:59.740Z,100786.45
2019-04-25T23:49:28.800Z,100787.31
2019-04-25T23:51:58.086Z,100780.86
2019-04-25T23:54:27.123Z,100776.78
2019-04-25T23:56:56.379Z,100776.09
2019-04-25T23:59:25.745Z,100766.56
